createdAt,value
2022-08-20T00:01:02.270Z,15.02
2022-08-20T00:04:07.802Z,17.73
2022-08-20T00:07:17.224Z,16.10
2022-08-20T00:10:23.191Z,17.88
2022-08-20T00:13:29.756Z,17.60
2022-08-20T00:16:36.878Z,18.90
2022-08-20T00:19:42.360Z,18.25
2022-08-20T00:22:50.457Z,18.83
2022-08-20T00:25:55.932Z,17.75
2022-08-20T00:29:01.061Z,17.15
2022-08-20T00:32:06.413Z,17.42
2022-08-20T00:35:13.094Z,17.58
2022-08-20T00:38:21.276Z,17.55
2022-08-20T00:41:27.731Z,19.75
2022-08-20T00:44:33.688Z,18.88
2022-08-20T00:47:40.828Z,18.17
2022-08-20T00:50:56.955Z,18.45
2022-08-20T00:54:06.211Z,19.75
2022-08-20T00:57:12.961Z,21.17
2022-08-20T01:00:20.631Z,21.00
2022-08-20T01:03:25.860Z,21.90
2022-08-20T01:06:31.003Z,21.80
2022-08-20T01:09:58.194Z,22.90
2022-08-20T01:13:08.706Z,22.75
2022-08-20T01:16:17.597Z,21.73
2022-08-20T01:19:30.126Z,22.77
2022-08-20T01:22:51.120Z,22.95
2022-08-20T01:26:00.585Z,22.45
2022-08-20T01:29:08.020Z,23.20
2022-08-20T01:32:13.140Z,23.30
2022-08-20T01:35:22.883Z,23.55
2022-08-20T01:38:28.029Z,22.45
2022-08-20T01:41:43.973Z,21.17
2022-08-20T01:44:50.337Z,21.05
2022-08-20T01:47:55.699Z,19.88
2022-08-20T01:51:05.138Z,20.48
2022-08-20T01:54:10.878Z,20.48
2022-08-20T01:57:19.565Z,19.77
2022-08-20T02:00:25.538Z,18.52
2022-08-20T02:03:34.807Z,17.92
2022-08-20T02:06:56.797Z,17.85
2022-08-20T02:10:03.032Z,16.23
2022-08-20T02:13:11.180Z,17.10
2022-08-20T02:16:38.410Z,16.17
2022-08-20T02:19:44.507Z,15.57
2022-08-20T02:22:51.743Z,16.70
2022-08-20T02:25:57.071Z,16.42
2022-08-20T02:29:05.533Z,15.55
2022-08-20T02:32:24.927Z,15.43
2022-08-20T02:35:36.163Z,14.93
2022-08-20T02:38:41.467Z,14.70
2022-08-20T02:41:47.107Z,15.00
2022-08-20T02:44:55.159Z,16.02
2022-08-20T02:48:00.286Z,14.80
2022-08-20T02:51:07.359Z,15.00
2022-08-20T02:54:12.844Z,13.55
2022-08-20T02:57:20.584Z,14.60
2022-08-20T03:00:28.252Z,14.00
2022-08-20T03:03:33.356Z,14.73
2022-08-20T03:06:38.658Z,13.25
2022-08-20T03:09:44.622Z,13.82
2022-08-20T03:12:49.651Z,13.82
2022-08-20T03:15:59.316Z,16.58
2022-08-20T03:19:04.355Z,15.02
2022-08-20T03:22:09.624Z,16.23
2022-08-20T03:25:14.875Z,20.48
2022-08-20T03:28:20.317Z,26.15
2022-08-20T03:31:27.931Z,31.08
2022-08-20T03:34:33.368Z,33.22
2022-08-20T03:37:39.473Z,34.10
2022-08-20T03:40:48.669Z,38.40
2022-08-20T03:43:54.933Z,40.08
2022-08-20T03:47:02.777Z,39.92
2022-08-20T03:50:09.227Z,39.88
2022-08-20T03:53:19.934Z,41.13
2022-08-20T03:56:25.045Z,37.47
2022-08-20T03:59:33.202Z,36.63
2022-08-20T04:02:41.111Z,32.70
2022-08-20T04:05:47.389Z,30.98
2022-08-20T04:08:54.031Z,30.98
2022-08-20T04:12:00.459Z,30.77
2022-08-20T04:15:05.677Z,29.05
2022-08-20T04:18:20.547Z,24.05
2022-08-20T04:21:25.578Z,21.50
2022-08-20T04:24:34.900Z,21.98
2022-08-20T04:27:40.703Z,21.92
2022-08-20T04:30:51.681Z,20.90
2022-08-20T04:33:59.859Z,17.80
2022-08-20T04:37:05.442Z,16.88
2022-08-20T04:40:24.207Z,16.85
2022-08-20T04:43:30.254Z,14.68
2022-08-20T04:46:35.519Z,14.18
2022-08-20T04:49:43.433Z,14.13
2022-08-20T04:52:48.722Z,12.30
2022-08-20T04:55:54.670Z,12.20
2022-08-20T04:59:00.747Z,11.80
2022-08-20T05:02:05.868Z,11.38
2022-08-20T05:05:14.590Z,10.88
2022-08-20T05:08:20.683Z,11.13
2022-08-20T05:11:35.842Z,9.57
2022-08-20T05:14:41.968Z,9.23
2022-08-20T05:17:47.619Z,9.52
2022-08-20T05:20:56.257Z,10.05
2022-08-20T05:24:03.154Z,10.35
2022-08-20T05:27:08.682Z,9.43
2022-08-20T05:30:34.314Z,9.82
2022-08-20T05:33:41.143Z,10.73
2022-08-20T05:36:51.535Z,13.13
2022-08-20T05:39:59.336Z,12.23
2022-08-20T05:43:05.039Z,12.60
2022-08-20T05:46:10.244Z,10.35
2022-08-20T05:49:16.619Z,10.05
2022-08-20T05:52:24.379Z,9.30
2022-08-20T05:55:29.676Z,9.52
2022-08-20T05:58:35.304Z,9.40
2022-08-20T06:01:41.655Z,8.25
2022-08-20T06:04:44.226Z,8.85
2022-08-20T06:07:54.727Z,8.77
2022-08-20T06:11:02.955Z,9.45
2022-08-20T06:14:08.460Z,9.45
2022-08-20T06:17:15.269Z,9.25
2022-08-20T06:20:20.602Z,8.40
2022-08-20T06:23:57.458Z,8.02
2022-08-20T06:26:58.186Z,7.95
2022-08-20T06:30:03.373Z,8.27
2022-08-20T06:33:10.045Z,7.70
2022-08-20T06:36:18.688Z,7.80
2022-08-20T06:39:27.195Z,7.90
2022-08-20T06:42:32.193Z,7.13
2022-08-20T06:45:38.197Z,7.63
2022-08-20T06:48:43.213Z,7.43
2022-08-20T06:51:51.874Z,7.53
2022-08-20T06:55:00.148Z,7.10
2022-08-20T06:58:05.820Z,6.50
2022-08-20T07:01:11.649Z,7.20
2022-08-20T07:04:16.911Z,5.97
2022-08-20T07:07:22.471Z,6.68
2022-08-20T07:10:31.058Z,6.93
2022-08-20T07:13:37.088Z,6.25
2022-08-20T07:16:42.258Z,6.65
2022-08-20T07:19:47.314Z,6.25
2022-08-20T07:22:52.781Z,5.75
2022-08-20T07:26:00.859Z,5.22
2022-08-20T07:29:05.993Z,6.15
2022-08-20T07:32:23.399Z,5.63
2022-08-20T07:35:34.271Z,5.15
2022-08-20T07:38:40.000Z,5.65
2022-08-20T07:42:03.200Z,6.60
2022-08-20T07:45:11.068Z,5.05
2022-08-20T07:48:29.730Z,5.28
2022-08-20T07:51:36.889Z,4.85
2022-08-20T07:54:42.870Z,5.57
2022-08-20T07:57:51.079Z,5.18
2022-08-20T08:04:01.193Z,4.72
2022-08-20T08:07:06.341Z,4.00
2022-08-20T08:10:12.975Z,4.50
2022-08-20T08:13:20.971Z,4.75
2022-08-20T08:16:26.124Z,5.22
2022-08-20T08:19:38.981Z,5.45
2022-08-20T08:22:44.527Z,4.05
2022-08-20T08:25:51.777Z,5.03
2022-08-20T08:28:59.642Z,4.90
2022-08-20T08:32:05.051Z,4.45
2022-08-20T08:35:10.857Z,4.78
2022-08-20T08:38:17.066Z,4.00
2022-08-20T08:41:23.378Z,4.30
2022-08-20T08:44:34.145Z,4.45
2022-08-20T08:47:41.441Z,4.90
2022-08-20T08:50:54.272Z,4.70
2022-08-20T08:54:04.604Z,4.78
2022-08-20T08:57:13.029Z,4.90
2022-08-20T09:00:22.694Z,4.22
2022-08-20T09:03:29.529Z,4.63
2022-08-20T09:06:35.601Z,4.45
2022-08-20T09:09:41.842Z,4.38
2022-08-20T09:12:47.860Z,4.80
2022-08-20T09:15:55.719Z,5.57
2022-08-20T09:19:00.837Z,4.80
2022-08-20T09:22:10.008Z,4.90
2022-08-20T09:25:15.371Z,5.35
2022-08-20T09:28:20.358Z,4.63
2022-08-20T09:31:29.216Z,5.05
2022-08-20T09:34:37.652Z,5.82
2022-08-20T09:37:43.364Z,5.90
2022-08-20T09:40:49.061Z,5.45
2022-08-20T09:43:54.902Z,5.82
2022-08-20T09:47:02.523Z,6.63
2022-08-20T09:50:08.739Z,6.90
2022-08-20T09:53:13.947Z,7.55
2022-08-20T09:56:19.885Z,7.63
2022-08-20T09:59:25.212Z,8.82
2022-08-20T10:02:33.187Z,9.15
2022-08-20T10:05:38.370Z,9.23
2022-08-20T10:08:43.602Z,9.50
2022-08-20T10:11:48.709Z,10.65
2022-08-20T10:14:56.010Z,9.70
2022-08-20T10:18:08.967Z,10.70
2022-08-20T10:21:17.562Z,11.43
2022-08-20T10:24:23.316Z,11.50
2022-08-20T10:27:28.474Z,11.57
2022-08-20T10:30:33.714Z,11.68
2022-08-20T10:33:41.990Z,11.80
2022-08-20T10:36:47.756Z,12.65
2022-08-20T10:39:53.281Z,12.38
2022-08-20T10:42:58.452Z,10.82
2022-08-20T10:46:03.643Z,12.40
2022-08-20T10:49:11.705Z,12.77
2022-08-20T10:52:16.913Z,11.50
2022-08-20T10:55:22.412Z,11.48
2022-08-20T10:58:37.700Z,10.23
2022-08-20T11:01:45.362Z,10.38
2022-08-20T11:04:53.519Z,9.75
2022-08-20T11:08:00.031Z,11.40
2022-08-20T11:11:05.530Z,9.73
2022-08-20T11:14:10.517Z,9.10
2022-08-20T11:17:16.078Z,9.60
2022-08-20T11:20:25.508Z,9.90
2022-08-20T11:23:30.717Z,9.75
2022-08-20T11:26:36.062Z,10.32
2022-08-20T11:29:41.540Z,9.48
2022-08-20T11:32:49.024Z,10.83
2022-08-20T11:35:56.685Z,9.90
2022-08-20T11:39:01.960Z,10.10
2022-08-20T11:42:07.253Z,7.63
2022-08-20T11:45:13.010Z,8.18
2022-08-20T11:48:19.138Z,7.28
2022-08-20T11:51:26.711Z,6.55
2022-08-20T11:54:33.044Z,6.65
2022-08-20T11:57:39.294Z,6.53
2022-08-20T12:00:44.665Z,6.50
2022-08-20T12:03:49.775Z,5.72
2022-08-20T12:06:57.551Z,7.22
2022-08-20T12:10:07.089Z,5.75
2022-08-20T12:13:12.445Z,5.57
2022-08-20T12:16:17.432Z,5.50
2022-08-20T12:19:22.578Z,5.75
2022-08-20T12:22:30.221Z,4.93
2022-08-20T12:25:35.822Z,4.55
2022-08-20T12:28:41.008Z,4.60
2022-08-20T12:31:46.380Z,5.40
2022-08-20T12:34:51.943Z,4.63
2022-08-20T12:37:59.817Z,5.03
2022-08-20T12:41:05.052Z,4.43
2022-08-20T12:44:10.645Z,5.07
2022-08-20T12:47:19.280Z,4.28
2022-08-20T12:50:30.893Z,4.15
2022-08-20T12:53:39.279Z,10.35
2022-08-20T12:56:44.474Z,5.88
2022-08-20T12:59:49.462Z,6.57
2022-08-20T13:02:55.735Z,4.70
2022-08-20T13:06:03.795Z,4.47
2022-08-20T13:09:11.758Z,4.63
2022-08-20T13:12:17.339Z,4.72
2022-08-20T13:15:23.005Z,4.38
2022-08-20T13:18:27.966Z,4.80
2022-08-20T13:21:33.105Z,5.07
2022-08-20T13:24:41.071Z,4.03
2022-08-20T13:27:46.696Z,4.57
2022-08-20T13:30:51.913Z,4.82
2022-08-20T13:33:57.293Z,5.07
2022-08-20T13:37:02.234Z,5.70
2022-08-20T13:40:11.267Z,5.22
2022-08-20T13:43:16.334Z,5.45
2022-08-20T13:46:21.593Z,8.40
2022-08-20T13:49:27.148Z,8.55
2022-08-20T13:52:38.999Z,7.53
2022-08-20T13:55:47.106Z,7.45
2022-08-20T13:58:53.084Z,7.90
2022-08-20T14:01:58.498Z,9.85
2022-08-20T14:05:03.448Z,8.25
2022-08-20T14:08:09.738Z,8.77
2022-08-20T14:11:18.266Z,9.50
2022-08-20T14:14:23.452Z,8.75
2022-08-20T14:17:29.539Z,10.75
2022-08-20T14:20:35.633Z,9.77
2022-08-20T14:23:44.285Z,9.52
2022-08-20T14:26:51.846Z,8.95
2022-08-20T14:29:56.932Z,9.75
2022-08-20T14:33:02.158Z,9.38
2022-08-20T14:36:07.594Z,8.18
2022-08-20T14:39:13.901Z,8.68
2022-08-20T14:42:24.569Z,8.60
2022-08-20T14:45:29.671Z,7.97
2022-08-20T14:48:34.812Z,7.32
2022-08-20T14:51:40.143Z,7.10
2022-08-20T14:54:45.758Z,6.43
2022-08-20T14:57:54.814Z,6.35
2022-08-20T15:01:00.037Z,5.90
2022-08-20T15:04:05.195Z,5.13
2022-08-20T15:07:13.099Z,5.22
2022-08-20T15:10:21.165Z,5.13
2022-08-20T15:13:28.850Z,4.63
2022-08-20T15:16:33.958Z,4.95
2022-08-20T15:19:39.243Z,4.78
2022-08-20T15:22:44.927Z,4.50
2022-08-20T15:25:50.141Z,4.80
2022-08-20T15:28:57.852Z,6.70
2022-08-20T15:32:03.198Z,3.78
2022-08-20T15:35:10.917Z,4.00
2022-08-20T15:38:15.883Z,4.50
2022-08-20T15:41:21.001Z,5.53
2022-08-20T15:44:28.942Z,4.55
2022-08-20T15:47:37.030Z,3.67
2022-08-20T15:53:51.963Z,4.63
2022-08-20T15:57:02.075Z,4.05
2022-08-20T16:00:13.939Z,4.10
2022-08-20T16:03:28.599Z,4.45
2022-08-20T16:06:35.085Z,4.35
2022-08-20T16:09:51.044Z,6.15
2022-08-20T16:12:59.459Z,22.02
2022-08-20T16:16:09.884Z,4.97
2022-08-20T16:19:15.675Z,7.07
2022-08-20T16:22:21.501Z,4.72
2022-08-20T16:25:29.142Z,3.83
2022-08-20T16:28:39.316Z,5.00
2022-08-20T16:31:48.317Z,3.92
2022-08-20T16:34:58.640Z,4.00
2022-08-20T16:38:09.992Z,4.53
2022-08-20T16:41:16.825Z,3.92
2022-08-20T16:44:28.796Z,3.70
2022-08-20T16:47:38.436Z,4.28
2022-08-20T16:50:44.483Z,4.07
2022-08-20T16:53:49.633Z,5.75
2022-08-20T16:57:01.089Z,4.10
2022-08-20T17:00:11.325Z,4.00
2022-08-20T17:03:31.624Z,3.83
2022-08-20T17:06:47.536Z,3.38
2022-08-20T17:09:53.267Z,4.55
2022-08-20T17:12:59.998Z,4.13
2022-08-20T17:16:07.040Z,4.20
2022-08-20T17:19:31.427Z,3.47
2022-08-20T17:22:44.039Z,3.67
2022-08-20T17:25:57.292Z,4.97
2022-08-20T17:29:03.986Z,3.78
2022-08-20T17:32:13.325Z,4.03
2022-08-20T17:35:29.282Z,4.38
2022-08-20T17:38:37.193Z,3.88
2022-08-20T17:41:49.385Z,4.10
2022-08-20T17:44:55.762Z,3.90
2022-08-20T17:48:01.908Z,4.80
2022-08-20T17:51:13.935Z,3.75
2022-08-20T17:54:24.560Z,3.35
2022-08-20T17:57:33.401Z,5.68
2022-08-20T18:00:38.732Z,4.15
2022-08-20T18:03:43.865Z,4.07
2022-08-20T18:06:55.314Z,3.63
2022-08-20T18:10:01.147Z,4.38
2022-08-20T18:13:10.820Z,3.53
2022-08-20T18:16:19.446Z,3.97
2022-08-20T18:19:32.584Z,4.10
2022-08-20T18:22:46.687Z,4.38
2022-08-20T18:25:54.750Z,4.15
2022-08-20T18:29:01.410Z,4.22
2022-08-20T18:32:07.994Z,3.85
2022-08-20T18:35:14.976Z,10.10
2022-08-20T18:38:34.605Z,4.88
2022-08-20T18:41:41.324Z,4.10
2022-08-20T18:44:48.013Z,4.35
2022-08-20T18:47:53.182Z,4.10
2022-08-20T18:50:59.745Z,4.50
2022-08-20T18:54:07.874Z,4.93
2022-08-20T18:57:21.637Z,4.43
2022-08-20T19:00:30.565Z,4.28
2022-08-20T19:03:40.858Z,3.78
2022-08-20T19:06:48.429Z,4.40
2022-08-20T19:10:09.555Z,4.38
2022-08-20T19:13:43.871Z,4.75
2022-08-20T19:16:52.232Z,5.15
2022-08-20T19:20:04.239Z,5.25
2022-08-20T19:23:10.995Z,5.65
2022-08-20T19:26:25.132Z,6.07
2022-08-20T19:29:32.653Z,6.03
2022-08-20T19:32:41.171Z,5.78
2022-08-20T19:35:50.806Z,6.20
2022-08-20T19:38:57.330Z,5.43
2022-08-20T19:42:06.558Z,6.22
2022-08-20T19:45:18.096Z,6.25
2022-08-20T19:48:29.435Z,7.03
2022-08-20T19:51:44.161Z,5.80
2022-08-20T19:54:54.892Z,5.85
2022-08-20T19:58:03.925Z,5.50
2022-08-20T20:01:13.228Z,6.00
2022-08-20T20:04:20.435Z,6.78
2022-08-20T20:07:27.124Z,6.43
2022-08-20T20:10:34.042Z,6.53
2022-08-20T20:13:42.063Z,5.75
2022-08-20T20:16:49.097Z,6.75
2022-08-20T20:19:57.211Z,6.78
2022-08-20T20:23:06.699Z,7.60
2022-08-20T20:26:17.874Z,7.10
2022-08-20T20:29:29.113Z,7.43
2022-08-20T20:32:34.519Z,7.50
2022-08-20T20:35:39.709Z,7.32
2022-08-20T20:38:55.581Z,8.85
2022-08-20T20:42:01.679Z,22.70
2022-08-20T20:45:21.581Z,9.07
2022-08-20T20:48:33.724Z,10.45
2022-08-20T20:51:40.355Z,9.52
2022-08-20T20:54:47.142Z,8.57
2022-08-20T20:57:52.553Z,9.48
2022-08-20T21:01:00.621Z,10.10
2022-08-20T21:04:05.984Z,11.55
2022-08-20T21:07:12.338Z,12.32
2022-08-20T21:10:17.634Z,13.40
2022-08-20T21:13:22.916Z,14.57
2022-08-20T21:16:30.816Z,15.65
2022-08-20T21:19:45.311Z,15.98
2022-08-20T21:22:51.169Z,16.17
2022-08-20T21:25:56.376Z,16.60
2022-08-20T21:29:02.371Z,16.40
2022-08-20T21:32:12.347Z,16.10
2022-08-20T21:35:19.015Z,16.20
2022-08-20T21:38:24.353Z,16.05
2022-08-20T21:41:30.339Z,15.43
2022-08-20T21:44:36.522Z,16.27
2022-08-20T21:47:45.336Z,16.90
2022-08-20T21:50:54.138Z,16.50
2022-08-20T21:53:59.259Z,88.13
2022-08-20T21:57:05.994Z,20.77
2022-08-20T22:00:17.199Z,18.92
2022-08-20T22:03:25.854Z,19.58
2022-08-20T22:06:31.588Z,20.10
2022-08-20T22:09:38.522Z,18.98
2022-08-20T22:12:43.746Z,19.52
2022-08-20T22:15:48.886Z,19.95
2022-08-20T22:18:56.791Z,19.73
2022-08-20T22:22:01.912Z,20.75
2022-08-20T22:25:07.382Z,20.98
2022-08-20T22:28:15.844Z,20.98
2022-08-20T22:31:21.804Z,20.48
2022-08-20T22:34:31.784Z,20.98
2022-08-20T22:37:37.011Z,21.65
2022-08-20T22:40:42.268Z,22.08
2022-08-20T22:43:56.595Z,23.55
2022-08-20T22:47:05.150Z,22.45
2022-08-20T22:50:13.808Z,23.70
2022-08-20T22:53:19.280Z,24.08
2022-08-20T22:56:24.920Z,22.90
2022-08-20T22:59:30.742Z,24.50
2022-08-20T23:02:36.329Z,25.20
2022-08-20T23:05:44.898Z,25.23
2022-08-20T23:11:55.132Z,26.35
2022-08-20T23:15:00.300Z,27.13
2022-08-20T23:18:08.130Z,27.13
2022-08-20T23:21:16.704Z,28.95
2022-08-20T23:24:22.707Z,28.95
2022-08-20T23:27:28.275Z,28.67
2022-08-20T23:30:33.439Z,30.40
2022-08-20T23:33:41.794Z,32.70
2022-08-20T23:36:52.813Z,31.60
2022-08-20T23:39:58.399Z,31.55
2022-08-20T23:43:03.972Z,33.78
2022-08-20T23:46:09.853Z,33.45
2022-08-20T23:49:15.382Z,36.33
2022-08-20T23:52:23.168Z,35.78
2022-08-20T23:55:28.529Z,38.88
2022-08-20T23:58:33.649Z,38.53
